sensor_id;sensor_type;location;lat;lon;timestamp;pressure;altitude;pressure_sealevel;temperature;humidity
58761;BME280;44529;47.464;19.014;2022-11-14T00:01:06;101433.75;;;5.40;100.00
58761;BME280;44529;47.464;19.014;2022-11-14T00:04:27;101438.31;;;5.40;100.00
58761;BME280;44529;47.464;19.014;2022-11-14T00:07:49;101443.28;;;5.31;100.00
58761;BME280;44529;47.464;19.014;2022-11-14T00:11:09;101435.50;;;5.30;100.00
58761;BME280;44529;47.464;19.014;2022-11-14T00:14:30;101420.78;;;5.32;100.00
58761;BME280;44529;47.464;19.014;2022-11-14T00:17:51;101419.50;;;5.35;100.00
58761;BME280;44529;47.464;19.014;2022-11-14T00:21:12;101417.63;;;5.35;100.00
58761;BME280;44529;47.464;19.014;2022-11-14T00:24:33;101430.22;;;5.35;100.00
58761;BME280;44529;47.464;19.014;2022-11-14T00:27:56;101425.66;;;5.35;100.00
58761;BME280;44529;47.464;19.014;2022-11-14T00:31:17;101422.16;;;5.35;100.00
58761;BME280;44529;47.464;19.014;2022-11-14T00:34:37;101425.97;;;5.39;100.00
58761;BME280;44529;47.464;19.014;2022-11-14T00:37:58;101424.84;;;5.35;100.00
58761;BME280;44529;47.464;19.014;2022-11-14T00:41:19;101417.03;;;5.33;100.00
58761;BME280;44529;47.464;19.014;2022-11-14T00:44:40;101423.72;;;5.31;100.00
58761;BME280;44529;47.464;19.014;2022-11-14T00:48:00;101423.19;;;5.34;100.00
58761;BME280;44529;47.464;19.014;2022-11-14T00:51:21;101423.97;;;5.29;100.00
58761;BME280;44529;47.464;19.014;2022-11-14T00:54:41;101417.16;;;5.22;100.00
58761;BME280;44529;47.464;19.014;2022-11-14T00:58:02;101426.06;;;5.27;100.00
58761;BME280;44529;47.464;19.014;2022-11-14T01:01:23;101422.53;;;5.22;100.00
58761;BME280;44529;47.464;19.014;2022-11-14T01:04:43;101423.06;;;5.24;100.00
58761;BME280;44529;47.464;19.014;2022-11-14T01:08:04;101429.41;;;5.18;100.00
58761;BME280;44529;47.464;19.014;2022-11-14T01:11:24;101423.81;;;5.19;100.00
58761;BME280;44529;47.464;19.014;2022-11-14T01:14:45;101417.38;;;5.20;100.00
58761;BME280;44529;47.464;19.014;2022-11-14T01:18:06;101424.31;;;5.16;100.00
58761;BME280;44529;47.464;19.014;2022-11-14T01:21:27;101406.09;;;5.18;100.00
58761;BME280;44529;47.464;19.014;2022-11-14T01:24:47;101409.59;;;5.19;100.00
58761;BME280;44529;47.464;19.014;2022-11-14T01:28:10;101406.19;;;5.23;100.00
58761;BME280;44529;47.464;19.014;2022-11-14T01:31:32;101396.53;;;5.22;100.00
58761;BME280;44529;47.464;19.014;2022-11-14T01:34:52;101406.19;;;5.23;100.00
58761;BME280;44529;47.464;19.014;2022-11-14T01:38:13;101407.63;;;5.31;100.00
58761;BME280;44529;47.464;19.014;2022-11-14T01:41:34;101401.62;;;5.24;100.00
58761;BME280;44529;47.464;19.014;2022-11-14T01:44:55;101397.56;;;5.21;100.00
58761;BME280;44529;47.464;19.014;2022-11-14T01:48:24;101404.88;;;5.26;100.00
58761;BME280;44529;47.464;19.014;2022-11-14T01:55:15;101388.91;;;5.36;100.00
58761;BME280;44529;47.464;19.014;2022-11-14T01:58:38;101395.91;;;5.37;100.00
58761;BME280;44529;47.464;19.014;2022-11-14T02:02:18;101384.66;;;5.40;100.00
58761;BME280;44529;47.464;19.014;2022-11-14T02:05:40;101386.53;;;5.39;100.00
58761;BME280;44529;47.464;19.014;2022-11-14T02:09:04;101381.00;;;5.46;100.00
58761;BME280;44529;47.464;19.014;2022-11-14T02:12:26;101381.94;;;5.35;100.00
58761;BME280;44529;47.464;19.014;2022-11-14T02:15:47;101379.25;;;5.35;100.00
58761;BME280;44529;47.464;19.014;2022-11-14T02:19:08;101384.53;;;5.30;100.00
58761;BME280;44529;47.464;19.014;2022-11-14T02:22:28;101379.81;;;5.37;100.00
58761;BME280;44529;47.464;19.014;2022-11-14T02:25:49;101379.63;;;5.22;100.00
58761;BME280;44529;47.464;19.014;2022-11-14T02:29:10;101379.03;;;5.20;100.00
58761;BME280;44529;47.464;19.014;2022-11-14T02:32:31;101380.59;;;5.15;100.00
58761;BME280;44529;47.464;19.014;2022-11-14T02:36:12;101376.19;;;5.26;100.00
58761;BME280;44529;47.464;19.014;2022-11-14T02:39:32;101367.06;;;5.27;100.00
58761;BME280;44529;47.464;19.014;2022-11-14T02:42:53;101374.47;;;5.20;100.00
58761;BME280;44529;47.464;19.014;2022-11-14T02:46:13;101372.13;;;5.24;100.00
58761;BME280;44529;47.464;19.014;2022-11-14T02:49:34;101371.88;;;5.25;100.00
58761;BME280;44529;47.464;19.014;2022-11-14T02:52:54;101375.53;;;5.19;100.00
58761;BME280;44529;47.464;19.014;2022-11-14T02:56:15;101375.72;;;5.12;100.00
58761;BME280;44529;47.464;19.014;2022-11-14T02:59:36;101374.75;;;5.19;100.00
58761;BME280;44529;47.464;19.014;2022-11-14T03:02:56;101377.34;;;5.13;100.00
58761;BME280;44529;47.464;19.014;2022-11-14T03:06:17;101378.31;;;5.07;100.00
58761;BME280;44529;47.464;19.014;2022-11-14T03:09:38;101372.03;;;4.97;100.00
58761;BME280;44529;47.464;19.014;2022-11-14T03:12:58;101370.81;;;4.87;100.00
58761;BME280;44529;47.464;19.014;2022-11-14T03:16:19;101374.22;;;4.83;100.00
58761;BME280;44529;47.464;19.014;2022-11-14T03:19:40;101365.37;;;4.82;100.00
58761;BME280;44529;47.464;19.014;2022-11-14T03:23:00;101369.09;;;4.81;100.00
58761;BME280;44529;47.464;19.014;2022-11-14T03:26:21;101363.91;;;4.75;100.00
58761;BME280;44529;47.464;19.014;2022-11-14T03:29:41;101375.69;;;4.74;100.00
58761;BME280;44529;47.464;19.014;2022-11-14T03:33:02;101364.50;;;4.77;100.00
58761;BME280;44529;47.464;19.014;2022-11-14T03:36:23;101354.97;;;4.86;100.00
58761;BME280;44529;47.464;19.014;2022-11-14T03:39:43;101359.72;;;4.79;100.00
58761;BME280;44529;47.464;19.014;2022-11-14T03:43:04;101359.63;;;4.74;100.00
58761;BME280;44529;47.464;19.014;2022-11-14T03:46:24;101353.78;;;4.77;100.00
58761;BME280;44529;47.464;19.014;2022-11-14T03:49:45;101363.09;;;4.74;100.00
58761;BME280;44529;47.464;19.014;2022-11-14T03:53:06;101359.88;;;4.72;100.00
58761;BME280;44529;47.464;19.014;2022-11-14T03:56:26;101362.28;;;4.57;100.00
58761;BME280;44529;47.464;19.014;2022-11-14T03:59:47;101356.06;;;4.51;100.00
58761;BME280;44529;47.464;19.014;2022-11-14T04:03:07;101354.25;;;4.57;100.00
58761;BME280;44529;47.464;19.014;2022-11-14T04:06:28;101348.09;;;4.56;100.00
58761;BME280;44529;47.464;19.014;2022-11-14T04:09:49;101341.53;;;4.64;100.00
58761;BME280;44529;47.464;19.014;2022-11-14T04:13:11;101334.53;;;4.63;100.00
58761;BME280;44529;47.464;19.014;2022-11-14T04:16:31;101338.03;;;4.47;100.00
58761;BME280;44529;47.464;19.014;2022-11-14T04:19:52;101337.50;;;4.45;100.00
58761;BME280;44529;47.464;19.014;2022-11-14T04:23:12;101342.59;;;4.46;100.00
58761;BME280;44529;47.464;19.014;2022-11-14T04:26:33;101335.28;;;4.42;100.00
58761;BME280;44529;47.464;19.014;2022-11-14T04:29:53;101327.00;;;4.43;100.00
58761;BME280;44529;47.464;19.014;2022-11-14T04:33:14;101333.50;;;4.47;100.00
58761;BME280;44529;47.464;19.014;2022-11-14T04:36:34;101339.31;;;4.44;100.00
58761;BME280;44529;47.464;19.014;2022-11-14T04:39:55;101330.72;;;4.42;100.00
58761;BME280;44529;47.464;19.014;2022-11-14T04:43:21;101328.87;;;4.43;100.00
58761;BME280;44529;47.464;19.014;2022-11-14T04:46:42;101330.09;;;4.35;100.00
58761;BME280;44529;47.464;19.014;2022-11-14T04:50:02;101323.25;;;4.44;100.00
58761;BME280;44529;47.464;19.014;2022-11-14T04:53:23;101319.47;;;4.40;100.00
58761;BME280;44529;47.464;19.014;2022-11-14T04:56:44;101314.13;;;4.40;100.00
58761;BME280;44529;47.464;19.014;2022-11-14T05:00:05;101316.78;;;4.40;100.00
58761;BME280;44529;47.464;19.014;2022-11-14T05:03:26;101305.19;;;4.34;100.00
58761;BME280;44529;47.464;19.014;2022-11-14T05:06:46;101306.00;;;4.35;100.00
58761;BME280;44529;47.464;19.014;2022-11-14T05:10:08;101308.09;;;4.33;100.00
58761;BME280;44529;47.464;19.014;2022-11-14T05:13:29;101295.13;;;4.42;100.00
58761;BME280;44529;47.464;19.014;2022-11-14T05:16:50;101294.87;;;4.43;100.00
58761;BME280;44529;47.464;19.014;2022-11-14T05:20:11;101297.25;;;4.40;100.00
58761;BME280;44529;47.464;19.014;2022-11-14T05:23:32;101299.75;;;4.46;100.00
58761;BME280;44529;47.464;19.014;2022-11-14T05:26:52;101298.59;;;4.42;100.00
58761;BME280;44529;47.464;19.014;2022-11-14T05:30:14;101301.37;;;4.47;100.00
58761;BME280;44529;47.464;19.014;2022-11-14T05:33:35;101300.38;;;4.53;100.00
58761;BME280;44529;47.464;19.014;2022-11-14T05:36:56;101306.38;;;4.60;100.00
58761;BME280;44529;47.464;19.014;2022-11-14T05:40:16;101303.88;;;4.54;100.00
58761;BME280;44529;47.464;19.014;2022-11-14T05:43:39;101304.69;;;4.54;100.00
58761;BME280;44529;47.464;19.014;2022-11-14T05:47:00;101306.06;;;4.57;100.00
58761;BME280;44529;47.464;19.014;2022-11-14T05:50:20;101290.75;;;4.52;100.00
58761;BME280;44529;47.464;19.014;2022-11-14T05:53:41;101298.25;;;4.55;100.00
58761;BME280;44529;47.464;19.014;2022-11-14T05:57:02;101300.69;;;4.57;100.00
58761;BME280;44529;47.464;19.014;2022-11-14T06:00:23;101304.03;;;4.64;100.00
58761;BME280;44529;47.464;19.014;2022-11-14T06:03:45;101298.84;;;4.57;100.00
58761;BME280;44529;47.464;19.014;2022-11-14T06:07:06;101304.78;;;4.59;100.00
58761;BME280;44529;47.464;19.014;2022-11-14T06:10:27;101307.91;;;4.56;100.00
58761;BME280;44529;47.464;19.014;2022-11-14T06:13:47;101313.28;;;4.56;100.00
58761;BME280;44529;47.464;19.014;2022-11-14T06:17:08;101311.56;;;4.67;100.00
58761;BME280;44529;47.464;19.014;2022-11-14T06:20:29;101317.91;;;4.61;100.00
58761;BME280;44529;47.464;19.014;2022-11-14T06:23:50;101317.25;;;4.71;100.00
58761;BME280;44529;47.464;19.014;2022-11-14T06:27:10;101328.44;;;4.68;100.00
58761;BME280;44529;47.464;19.014;2022-11-14T06:30:31;101337.63;;;4.72;100.00
58761;BME280;44529;47.464;19.014;2022-11-14T06:33:51;101338.19;;;4.74;100.00
58761;BME280;44529;47.464;19.014;2022-11-14T06:37:12;101336.06;;;4.76;100.00
58761;BME280;44529;47.464;19.014;2022-11-14T06:40:33;101329.69;;;4.77;100.00
58761;BME280;44529;47.464;19.014;2022-11-14T06:43:54;101331.41;;;4.88;100.00
58761;BME280;44529;47.464;19.014;2022-11-14T06:47:14;101330.34;;;4.89;100.00
58761;BME280;44529;47.464;19.014;2022-11-14T06:50:35;101332.75;;;4.85;100.00
58761;BME280;44529;47.464;19.014;2022-11-14T06:53:56;101335.50;;;4.91;100.00
58761;BME280;44529;47.464;19.014;2022-11-14T06:57:17;101334.72;;;4.95;100.00
58761;BME280;44529;47.464;19.014;2022-11-14T07:00:38;101324.28;;;4.94;100.00
58761;BME280;44529;47.464;19.014;2022-11-14T07:03:59;101336.94;;;4.98;100.00
58761;BME280;44529;47.464;19.014;2022-11-14T07:07:21;101338.63;;;5.04;100.00
58761;BME280;44529;47.464;19.014;2022-11-14T07:10:42;101335.50;;;5.12;100.00
58761;BME280;44529;47.464;19.014;2022-11-14T07:14:03;101340.31;;;5.10;100.00
58761;BME280;44529;47.464;19.014;2022-11-14T07:17:23;101344.09;;;5.14;100.00
58761;BME280;44529;47.464;19.014;2022-11-14T07:20:59;101342.09;;;5.22;100.00
58761;BME280;44529;47.464;19.014;2022-11-14T07:24:21;101341.66;;;5.30;100.00
58761;BME280;44529;47.464;19.014;2022-11-14T07:27:41;101341.47;;;5.36;100.00
58761;BME280;44529;47.464;19.014;2022-11-14T07:31:03;101326.25;;;5.42;100.00
58761;BME280;44529;47.464;19.014;2022-11-14T07:34:23;101331.84;;;5.40;100.00
58761;BME280;44529;47.464;19.014;2022-11-14T07:37:44;101327.41;;;5.51;100.00
58761;BME280;44529;47.464;19.014;2022-11-14T07:41:07;101320.28;;;5.62;100.00
58761;BME280;44529;47.464;19.014;2022-11-14T07:44:28;101319.53;;;5.66;100.00
58761;BME280;44529;47.464;19.014;2022-11-14T07:47:49;101315.41;;;5.81;100.00
58761;BME280;44529;47.464;19.014;2022-11-14T07:51:15;101327.63;;;5.93;100.00
58761;BME280;44529;47.464;19.014;2022-11-14T07:54:36;101330.97;;;6.06;100.00
58761;BME280;44529;47.464;19.014;2022-11-14T07:57:58;101327.06;;;6.18;100.00
58761;BME280;44529;47.464;19.014;2022-11-14T08:01:19;101330.88;;;6.28;100.00
58761;BME280;44529;47.464;19.014;2022-11-14T08:04:42;101330.97;;;6.38;100.00
58761;BME280;44529;47.464;19.014;2022-11-14T08:08:03;101328.91;;;6.50;100.00
58761;BME280;44529;47.464;19.014;2022-11-14T08:11:23;101325.19;;;6.56;100.00
58761;BME280;44529;47.464;19.014;2022-11-14T08:15:06;101329.06;;;6.70;100.00
58761;BME280;44529;47.464;19.014;2022-11-14T08:18:28;101316.75;;;6.79;100.00
58761;BME280;44529;47.464;19.014;2022-11-14T08:21:49;101318.72;;;6.94;100.00
58761;BME280;44529;47.464;19.014;2022-11-14T08:25:09;101311.78;;;7.03;100.00
58761;BME280;44529;47.464;19.014;2022-11-14T08:28:30;101299.19;;;7.09;100.00
58761;BME280;44529;47.464;19.014;2022-11-14T08:31:51;101303.22;;;7.12;100.00
58761;BME280;44529;47.464;19.014;2022-11-14T08:35:20;101306.50;;;7.24;100.00
58761;BME280;44529;47.464;19.014;2022-11-14T08:38:41;101300.91;;;7.36;100.00
58761;BME280;44529;47.464;19.014;2022-11-14T08:42:02;101298.22;;;7.46;100.00
58761;BME280;44529;47.464;19.014;2022-11-14T08:45:23;101306.91;;;7.63;100.00
58761;BME280;44529;47.464;19.014;2022-11-14T08:48:43;101299.41;;;7.80;100.00
58761;BME280;44529;47.464;19.014;2022-11-14T08:52:04;101297.81;;;8.00;100.00
58761;BME280;44529;47.464;19.014;2022-11-14T08:55:24;101289.72;;;8.15;100.00
58761;BME280;44529;47.464;19.014;2022-11-14T08:58:45;101294.56;;;8.28;100.00
58761;BME280;44529;47.464;19.014;2022-11-14T09:02:09;101293.53;;;8.45;100.00
58761;BME280;44529;47.464;19.014;2022-11-14T09:05:29;101297.28;;;8.59;100.00
58761;BME280;44529;47.464;19.014;2022-11-14T09:08:50;101292.94;;;8.73;98.84
58761;BME280;44529;47.464;19.014;2022-11-14T09:12:11;101286.97;;;8.81;97.91
58761;BME280;44529;47.464;19.014;2022-11-14T09:15:32;101291.31;;;8.82;98.25
58761;BME280;44529;47.464;19.014;2022-11-14T09:18:53;101292.34;;;8.91;96.46
58761;BME280;44529;47.464;19.014;2022-11-14T09:22:14;101300.38;;;9.07;95.54
58761;BME280;44529;47.464;19.014;2022-11-14T09:25:35;101296.88;;;9.11;94.69
58761;BME280;44529;47.464;19.014;2022-11-14T09:28:56;101296.56;;;9.23;93.35
58761;BME280;44529;47.464;19.014;2022-11-14T09:32:17;101290.66;;;9.21;93.36
58761;BME280;44529;47.464;19.014;2022-11-14T09:35:37;101288.19;;;9.25;93.02
58761;BME280;44529;47.464;19.014;2022-11-14T09:38:58;101281.69;;;9.26;93.33
58761;BME280;44529;47.464;19.014;2022-11-14T09:42:48;101282.50;;;9.31;93.06
58761;BME280;44529;47.464;19.014;2022-11-14T09:46:25;101281.37;;;9.42;92.34
58761;BME280;44529;47.464;19.014;2022-11-14T09:49:49;101279.16;;;9.49;92.43
58761;BME280;44529;47.464;19.014;2022-11-14T09:53:33;101275.38;;;9.50;90.95
58761;BME280;44529;47.464;19.014;2022-11-14T09:56:56;101267.22;;;9.61;91.05
58761;BME280;44529;47.464;19.014;2022-11-14T10:00:19;101256.72;;;9.54;91.38
58761;BME280;44529;47.464;19.014;2022-11-14T10:07:27;101260.66;;;9.72;91.18
58761;BME280;44529;47.464;19.014;2022-11-14T10:25:18;101238.13;;;10.21;88.41
58761;BME280;44529;47.464;19.014;2022-11-14T10:29:14;101233.00;;;10.24;87.88
58761;BME280;44529;47.464;19.014;2022-11-14T10:36:30;101216.84;;;10.43;86.05
58761;BME280;44529;47.464;19.014;2022-11-14T10:43:44;101208.12;;;10.51;85.97
58761;BME280;44529;47.464;19.014;2022-11-14T10:47:13;101208.41;;;10.50;86.52
58761;BME280;44529;47.464;19.014;2022-11-14T10:50:48;101201.25;;;10.59;85.73
58761;BME280;44529;47.464;19.014;2022-11-14T10:54:16;101209.78;;;10.71;85.63
58761;BME280;44529;47.464;19.014;2022-11-14T10:57:40;101198.75;;;10.87;85.30
58761;BME280;44529;47.464;19.014;2022-11-14T11:01:34;101201.06;;;10.98;84.29
58761;BME280;44529;47.464;19.014;2022-11-14T11:05:05;101184.97;;;11.07;84.78
58761;BME280;44529;47.464;19.014;2022-11-14T11:08:40;101183.66;;;11.23;82.87
58761;BME280;44529;47.464;19.014;2022-11-14T11:12:37;101181.41;;;11.30;83.32
58761;BME280;44529;47.464;19.014;2022-11-14T11:16:01;101185.34;;;11.38;83.31
58761;BME280;44529;47.464;19.014;2022-11-14T11:19:24;101172.75;;;11.47;82.83
58761;BME280;44529;47.464;19.014;2022-11-14T11:22:46;101166.97;;;11.54;82.03
58761;BME280;44529;47.464;19.014;2022-11-14T11:26:16;101163.69;;;11.71;81.27
58761;BME280;44529;47.464;19.014;2022-11-14T11:29:37;101153.81;;;11.80;80.82
58761;BME280;44529;47.464;19.014;2022-11-14T11:33:14;101153.00;;;11.79;81.63
58761;BME280;44529;47.464;19.014;2022-11-14T11:36:39;101152.03;;;11.89;81.40
58761;BME280;44529;47.464;19.014;2022-11-14T11:40:03;101146.94;;;12.01;79.82
58761;BME280;44529;47.464;19.014;2022-11-14T11:43:30;101143.44;;;12.01;79.71
58761;BME280;44529;47.464;19.014;2022-11-14T11:47:00;101141.44;;;12.06;80.51
58761;BME280;44529;47.464;19.014;2022-11-14T11:50:22;101138.94;;;12.10;79.63
58761;BME280;44529;47.464;19.014;2022-11-14T11:53:48;101132.84;;;12.18;79.37
58761;BME280;44529;47.464;19.014;2022-11-14T11:57:14;101128.69;;;12.20;79.68
58761;BME280;44529;47.464;19.014;2022-11-14T12:00:41;101127.00;;;12.25;79.57
58761;BME280;44529;47.464;19.014;2022-11-14T12:04:02;101125.41;;;12.37;79.24
58761;BME280;44529;47.464;19.014;2022-11-14T12:07:34;101114.34;;;12.47;79.63
58761;BME280;44529;47.464;19.014;2022-11-14T12:10:58;101110.81;;;12.47;79.12
58761;BME280;44529;47.464;19.014;2022-11-14T12:18:32;101099.06;;;12.52;78.58
58761;BME280;44529;47.464;19.014;2022-11-14T12:22:20;101101.69;;;12.57;78.28
58761;BME280;44529;47.464;19.014;2022-11-14T12:33:15;101085.56;;;12.74;78.12
58761;BME280;44529;47.464;19.014;2022-11-14T12:36:42;101077.50;;;12.83;77.08
58761;BME280;44529;47.464;19.014;2022-11-14T12:40:06;101072.62;;;12.93;76.74
58761;BME280;44529;47.464;19.014;2022-11-14T12:43:33;101067.41;;;12.97;77.06
58761;BME280;44529;47.464;19.014;2022-11-14T12:50:39;101052.97;;;13.10;74.92
58761;BME280;44529;47.464;19.014;2022-11-14T12:54:00;101052.31;;;13.80;71.99
58761;BME280;44529;47.464;19.014;2022-11-14T12:58:19;101052.78;;;13.82;69.74
58761;BME280;44529;47.464;19.014;2022-11-14T13:11:56;101044.78;;;13.01;72.99
58761;BME280;44529;47.464;19.014;2022-11-14T13:15:48;101038.34;;;12.97;73.27
58761;BME280;44529;47.464;19.014;2022-11-14T13:19:28;101036.91;;;13.00;72.88
58761;BME280;44529;47.464;19.014;2022-11-14T13:26:53;101033.59;;;13.03;72.15
58761;BME280;44529;47.464;19.014;2022-11-14T13:30:14;101034.97;;;13.14;72.33
58761;BME280;44529;47.464;19.014;2022-11-14T13:33:40;101026.81;;;13.14;71.33
58761;BME280;44529;47.464;19.014;2022-11-14T13:37:11;101030.25;;;13.06;71.58
58761;BME280;44529;47.464;19.014;2022-11-14T13:48:35;101013.47;;;12.82;70.94
58761;BME280;44529;47.464;19.014;2022-11-14T13:52:11;101006.19;;;12.91;70.90
58761;BME280;44529;47.464;19.014;2022-11-14T13:55:45;101006.06;;;12.73;71.51
58761;BME280;44529;47.464;19.014;2022-11-14T14:03:21;101003.37;;;12.60;71.69
58761;BME280;44529;47.464;19.014;2022-11-14T14:14:14;101001.12;;;12.39;71.16
58761;BME280;44529;47.464;19.014;2022-11-14T14:21:30;101001.06;;;12.31;72.38
58761;BME280;44529;47.464;19.014;2022-11-14T14:25:08;101001.56;;;12.19;72.49
58761;BME280;44529;47.464;19.014;2022-11-14T14:32:18;100999.47;;;12.16;73.28
58761;BME280;44529;47.464;19.014;2022-11-14T14:35:49;100999.69;;;12.06;73.97
58761;BME280;44529;47.464;19.014;2022-11-14T14:39:17;100993.66;;;11.95;75.87
58761;BME280;44529;47.464;19.014;2022-11-14T14:42:40;100997.38;;;11.85;75.70
58761;BME280;44529;47.464;19.014;2022-11-14T14:46:02;100985.91;;;11.75;76.34
58761;BME280;44529;47.464;19.014;2022-11-14T14:49:30;100984.97;;;11.65;76.80
58761;BME280;44529;47.464;19.014;2022-11-14T14:52:58;100982.69;;;11.59;77.28
58761;BME280;44529;47.464;19.014;2022-11-14T14:56:20;100982.56;;;11.50;77.87
58761;BME280;44529;47.464;19.014;2022-11-14T14:59:41;100977.44;;;11.35;78.23
58761;BME280;44529;47.464;19.014;2022-11-14T15:03:02;100981.22;;;11.20;79.99
58761;BME280;44529;47.464;19.014;2022-11-14T15:06:27;100979.66;;;11.00;81.05
58761;BME280;44529;47.464;19.014;2022-11-14T15:13:14;100975.56;;;10.70;82.05
58761;BME280;44529;47.464;19.014;2022-11-14T15:16:35;100973.78;;;10.61;83.64
58761;BME280;44529;47.464;19.014;2022-11-14T15:19:56;100977.41;;;10.37;85.15
58761;BME280;44529;47.464;19.014;2022-11-14T15:23:18;100971.63;;;10.25;85.42
58761;BME280;44529;47.464;19.014;2022-11-14T15:26:42;100975.44;;;10.19;86.16
58761;BME280;44529;47.464;19.014;2022-11-14T15:30:06;100979.50;;;10.16;85.17
58761;BME280;44529;47.464;19.014;2022-11-14T15:33:32;100974.19;;;10.11;84.96
58761;BME280;44529;47.464;19.014;2022-11-14T15:40:31;100963.81;;;9.99;85.77
58761;BME280;44529;47.464;19.014;2022-11-14T15:43:58;100967.06;;;9.96;85.79
58761;BME280;44529;47.464;19.014;2022-11-14T15:47:27;100970.19;;;9.85;86.65
58761;BME280;44529;47.464;19.014;2022-11-14T15:50:49;100963.00;;;9.75;87.43
58761;BME280;44529;47.464;19.014;2022-11-14T15:57:43;100965.25;;;9.68;87.89
58761;BME280;44529;47.464;19.014;2022-11-14T16:01:21;100965.38;;;9.58;88.85
58761;BME280;44529;47.464;19.014;2022-11-14T16:04:42;100969.66;;;9.59;88.57
58761;BME280;44529;47.464;19.014;2022-11-14T16:08:09;100973.00;;;9.50;89.40
58761;BME280;44529;47.464;19.014;2022-11-14T16:11:30;100979.06;;;9.37;90.13
58761;BME280;44529;47.464;19.014;2022-11-14T16:14:51;100971.22;;;9.41;89.68
58761;BME280;44529;47.464;19.014;2022-11-14T16:18:14;100982.09;;;9.31;90.12
58761;BME280;44529;47.464;19.014;2022-11-14T16:21:36;100982.72;;;9.22;90.74
58761;BME280;44529;47.464;19.014;2022-11-14T16:24:59;100987.69;;;9.10;91.81
58761;BME280;44529;47.464;19.014;2022-11-14T16:28:20;100980.22;;;9.02;93.40
58761;BME280;44529;47.464;19.014;2022-11-14T16:31:41;100983.03;;;8.87;93.65
58761;BME280;44529;47.464;19.014;2022-11-14T16:35:01;100976.03;;;8.86;93.90
58761;BME280;44529;47.464;19.014;2022-11-14T16:38:22;100979.03;;;8.79;94.08
58761;BME280;44529;47.464;19.014;2022-11-14T16:41:43;100979.34;;;8.73;95.24
58761;BME280;44529;47.464;19.014;2022-11-14T16:45:04;100976.97;;;8.66;95.51
58761;BME280;44529;47.464;19.014;2022-11-14T16:48:24;100978.09;;;8.60;96.35
58761;BME280;44529;47.464;19.014;2022-11-14T16:51:49;100981.91;;;8.54;97.60
58761;BME280;44529;47.464;19.014;2022-11-14T16:55:11;100980.34;;;8.48;97.35
58761;BME280;44529;47.464;19.014;2022-11-14T16:58:32;100987.41;;;8.38;97.63
58761;BME280;44529;47.464;19.014;2022-11-14T17:01:52;100985.81;;;8.37;97.56
58761;BME280;44529;47.464;19.014;2022-11-14T17:05:13;100982.56;;;8.35;97.73
58761;BME280;44529;47.464;19.014;2022-11-14T17:08:33;100984.53;;;8.14;100.00
58761;BME280;44529;47.464;19.014;2022-11-14T17:11:54;100980.75;;;8.10;99.22
58761;BME280;44529;47.464;19.014;2022-11-14T17:15:14;100990.75;;;8.05;99.30
58761;BME280;44529;47.464;19.014;2022-11-14T17:18:35;100983.25;;;8.02;99.55
58761;BME280;44529;47.464;19.014;2022-11-14T17:21:58;100974.06;;;8.03;99.18
58761;BME280;44529;47.464;19.014;2022-11-14T17:25:19;100972.19;;;7.98;98.46
58761;BME280;44529;47.464;19.014;2022-11-14T17:28:40;100971.97;;;7.95;98.96
58761;BME280;44529;47.464;19.014;2022-11-14T17:32:02;100971.97;;;7.95;98.55
58761;BME280;44529;47.464;19.014;2022-11-14T17:35:24;100974.38;;;7.91;98.95
58761;BME280;44529;47.464;19.014;2022-11-14T17:38:44;100964.47;;;7.86;98.64
58761;BME280;44529;47.464;19.014;2022-11-14T17:42:05;100962.06;;;7.80;99.00
58761;BME280;44529;47.464;19.014;2022-11-14T17:45:26;100959.66;;;7.73;100.00
58761;BME280;44529;47.464;19.014;2022-11-14T17:48:47;100963.16;;;7.74;99.74
58761;BME280;44529;47.464;19.014;2022-11-14T17:52:09;100966.97;;;7.63;100.00
58761;BME280;44529;47.464;19.014;2022-11-14T17:55:29;100957.00;;;7.63;100.00
58761;BME280;44529;47.464;19.014;2022-11-14T17:58:51;100964.56;;;7.56;100.00
58761;BME280;44529;47.464;19.014;2022-11-14T18:02:13;100962.69;;;7.51;100.00
58761;BME280;44529;47.464;19.014;2022-11-14T18:05:33;100953.56;;;7.42;100.00
58761;BME280;44529;47.464;19.014;2022-11-14T18:08:54;100948.97;;;7.43;100.00
58761;BME280;44529;47.464;19.014;2022-11-14T18:12:15;100938.22;;;7.32;100.00
58761;BME280;44529;47.464;19.014;2022-11-14T18:15:37;100951.41;;;7.34;100.00
58761;BME280;44529;47.464;19.014;2022-11-14T18:18:58;100940.16;;;7.22;100.00
58761;BME280;44529;47.464;19.014;2022-11-14T18:22:18;100936.09;;;7.19;100.00
58761;BME280;44529;47.464;19.014;2022-11-14T18:25:38;100944.72;;;7.16;100.00
58761;BME280;44529;47.464;19.014;2022-11-14T18:29:00;100940.16;;;7.17;100.00
58761;BME280;44529;47.464;19.014;2022-11-14T18:32:21;100949.56;;;7.19;100.00
58761;BME280;44529;47.464;19.014;2022-11-14T18:35:42;100948.75;;;7.14;100.00
58761;BME280;44529;47.464;19.014;2022-11-14T18:39:02;100945.00;;;7.10;100.00
58761;BME280;44529;47.464;19.014;2022-11-14T18:42:23;100944.72;;;7.06;100.00
58761;BME280;44529;47.464;19.014;2022-11-14T18:45:44;100938.28;;;6.87;100.00
58761;BME280;44529;47.464;19.014;2022-11-14T18:49:05;100946.88;;;6.89;100.00
58761;BME280;44529;47.464;19.014;2022-11-14T18:52:26;100949.03;;;6.87;100.00
58761;BME280;44529;47.464;19.014;2022-11-14T18:55:47;100943.13;;;6.79;100.00
58761;BME280;44529;47.464;19.014;2022-11-14T18:59:12;100938.84;;;6.58;100.00
58761;BME280;44529;47.464;19.014;2022-11-14T19:02:33;100937.75;;;6.69;100.00
58761;BME280;44529;47.464;19.014;2022-11-14T19:05:53;100934.53;;;6.52;100.00
58761;BME280;44529;47.464;19.014;2022-11-14T19:09:14;100928.59;;;6.55;100.00